createdAt,value
2018-10-09T00:00:21.953Z,6.20
2018-10-09T00:02:50.495Z,6.40
2018-10-09T00:05:19.383Z,6.60
2018-10-09T00:07:47.949Z,6.60
2018-10-09T00:10:16.556Z,6.60
2018-10-09T00:12:45.074Z,6.50
2018-10-09T00:15:13.611Z,6.30
2018-10-09T00:17:42.091Z,6.40
2018-10-09T00:20:10.613Z,6.40
2018-10-09T00:22:39.093Z,6.40
2018-10-09T00:25:08.033Z,6.30
2018-10-09T00:27:36.816Z,6.30
2018-10-09T00:30:06.432Z,6.30
2018-10-09T00:32:34.874Z,6.40
2018-10-09T00:35:03.396Z,6.50
2018-10-09T00:37:32.120Z,6.50
2018-10-09T00:40:00.454Z,6.60
2018-10-09T00:42:28.939Z,6.70
2018-10-09T00:44:57.421Z,6.90
2018-10-09T00:47:26.071Z,6.90
2018-10-09T00:49:54.474Z,6.90
2018-10-09T00:52:22.935Z,6.90
2018-10-09T00:54:51.432Z,6.90
2018-10-09T00:57:20.142Z,6.70
2018-10-09T00:59:49.125Z,6.60
2018-10-09T01:02:17.931Z,6.40
2018-10-09T01:04:46.325Z,6.30
2018-10-09T01:07:15.048Z,6.30
2018-10-09T01:09:55.265Z,6.20
2018-10-09T01:12:23.810Z,6.20
2018-10-09T01:14:52.230Z,6.10
2018-10-09T01:17:20.537Z,6.10
2018-10-09T01:19:49.089Z,6.10
2018-10-09T01:22:17.461Z,6.10
2018-10-09T01:24:45.996Z,6.10
2018-10-09T01:27:14.447Z,6.20
2018-10-09T01:29:42.904Z,6.30
2018-10-09T01:32:11.484Z,6.40
2018-10-09T01:34:39.888Z,6.40
2018-10-09T01:37:08.308Z,6.30
2018-10-09T01:39:36.701Z,6.40
2018-10-09T01:42:05.199Z,6.40
2018-10-09T01:44:33.767Z,6.40
2018-10-09T01:47:03.314Z,6.30
2018-10-09T01:49:31.798Z,6.30
2018-10-09T01:52:00.278Z,6.20
2018-10-09T01:54:28.904Z,6.10
2018-10-09T01:56:57.714Z,6.00
2018-10-09T01:59:26.293Z,5.90
2018-10-09T02:01:55.018Z,5.80
2018-10-09T02:04:23.503Z,6.00
2018-10-09T02:06:52.040Z,6.00
2018-10-09T02:09:20.573Z,5.90
2018-10-09T02:11:49.446Z,5.80
2018-10-09T02:14:18.596Z,5.80
2018-10-09T02:16:47.159Z,5.70
2018-10-09T02:19:16.098Z,5.80
2018-10-09T02:21:44.571Z,5.90
2018-10-09T02:24:13.038Z,6.00
2018-10-09T02:26:41.448Z,6.00
2018-10-09T02:29:09.911Z,6.10
2018-10-09T02:31:38.486Z,6.20
2018-10-09T02:34:07.033Z,6.20
2018-10-09T02:36:35.527Z,6.10
2018-10-09T02:39:04.278Z,6.00
2018-10-09T02:41:32.637Z,5.90
2018-10-09T02:44:01.180Z,5.90
2018-10-09T02:46:29.574Z,5.80
2018-10-09T02:48:58.177Z,5.80
2018-10-09T02:51:26.652Z,5.90
2018-10-09T02:53:55.122Z,5.90
2018-10-09T02:56:23.819Z,5.90
2018-10-09T02:58:52.510Z,5.80
2018-10-09T03:01:21.099Z,5.70
2018-10-09T03:03:49.620Z,5.70
2018-10-09T03:06:18.200Z,5.70
2018-10-09T03:08:46.955Z,5.70
2018-10-09T03:11:38.773Z,5.70
2018-10-09T03:14:08.351Z,5.70
2018-10-09T03:16:36.896Z,5.70
2018-10-09T03:19:07.387Z,5.60
2018-10-09T03:21:36.118Z,5.70
2018-10-09T03:24:05.183Z,5.70
2018-10-09T03:26:33.650Z,5.80
2018-10-09T03:29:02.323Z,5.70
2018-10-09T03:31:30.893Z,5.60
2018-10-09T03:33:59.755Z,5.60
2018-10-09T03:36:28.412Z,5.50
2018-10-09T03:38:57.388Z,5.40
2018-10-09T03:41:25.874Z,5.30
2018-10-09T03:43:54.259Z,5.40
2018-10-09T03:46:23.536Z,5.40
2018-10-09T03:48:52.091Z,5.40
2018-10-09T03:51:20.561Z,5.40
2018-10-09T03:53:49.031Z,5.40
2018-10-09T03:56:17.507Z,5.40
2018-10-09T03:58:45.877Z,5.40
2018-10-09T04:01:14.416Z,5.50
2018-10-09T04:03:43.151Z,5.50
2018-10-09T04:06:11.847Z,5.50
2018-10-09T04:08:40.229Z,5.40
2018-10-09T04:11:08.688Z,5.40
2018-10-09T04:13:37.274Z,5.30
2018-10-09T04:16:06.036Z,5.30
2018-10-09T04:18:35.089Z,5.30
2018-10-09T04:21:03.558Z,5.20
2018-10-09T04:23:31.942Z,5.30
2018-10-09T04:26:01.622Z,5.40
2018-10-09T04:28:30.080Z,5.40
2018-10-09T04:30:59.648Z,5.40
2018-10-09T04:33:27.967Z,5.40
2018-10-09T04:35:56.370Z,5.40
2018-10-09T04:38:24.746Z,5.30
2018-10-09T04:40:53.152Z,5.40
2018-10-09T04:43:21.580Z,5.40
2018-10-09T04:45:49.943Z,5.40
2018-10-09T04:48:19.333Z,5.50
2018-10-09T04:50:47.744Z,5.60
2018-10-09T04:53:16.071Z,5.50
2018-10-09T04:55:44.726Z,5.60
2018-10-09T04:58:13.111Z,5.60
2018-10-09T05:00:42.289Z,5.50
2018-10-09T05:03:10.664Z,5.60
2018-10-09T05:05:39.257Z,5.60
2018-10-09T05:08:07.881Z,5.50
2018-10-09T05:10:36.486Z,5.60
2018-10-09T05:13:05.026Z,5.50
2018-10-09T05:15:33.913Z,5.50
2018-10-09T05:18:03.126Z,5.40
2018-10-09T05:20:32.413Z,5.40
2018-10-09T05:23:01.031Z,5.40
2018-10-09T05:25:30.391Z,5.40
2018-10-09T05:27:59.337Z,5.40
2018-10-09T05:30:28.277Z,5.50
2018-10-09T05:32:56.809Z,5.60
2018-10-09T05:35:25.307Z,5.70
2018-10-09T05:37:53.901Z,5.70
2018-10-09T05:40:22.515Z,5.60
2018-10-09T05:42:52.699Z,5.60
2018-10-09T05:45:21.472Z,5.60
2018-10-09T05:47:50.300Z,5.60
2018-10-09T05:50:18.941Z,5.60
2018-10-09T05:52:47.343Z,5.60
2018-10-09T05:55:15.705Z,5.60
2018-10-09T05:57:44.126Z,5.60
2018-10-09T06:00:12.628Z,5.60
2018-10-09T06:02:41.538Z,5.70
2018-10-09T06:05:10.077Z,5.80
2018-10-09T06:07:38.741Z,5.90
2018-10-09T06:10:08.773Z,5.90
2018-10-09T06:12:38.248Z,5.90
2018-10-09T06:15:06.985Z,5.90
2018-10-09T06:17:37.609Z,6.00
2018-10-09T06:20:07.520Z,6.10
2018-10-09T06:22:36.212Z,6.20
2018-10-09T06:25:05.177Z,6.30
2018-10-09T06:27:33.681Z,6.40
2018-10-09T06:30:02.211Z,6.50
2018-10-09T06:32:33.098Z,6.70
2018-10-09T06:35:01.676Z,6.90
2018-10-09T06:37:30.666Z,7.20
2018-10-09T06:40:00.000Z,7.50
2018-10-09T06:42:29.304Z,7.60
2018-10-09T06:44:59.806Z,7.90
2018-10-09T06:47:31.026Z,8.10
2018-10-09T06:49:59.435Z,8.30
2018-10-09T06:52:27.958Z,8.50
2018-10-09T06:54:56.361Z,8.80
2018-10-09T06:57:24.759Z,9.10
2018-10-09T06:59:53.148Z,9.30
2018-10-09T07:02:21.522Z,9.30
2018-10-09T07:04:50.601Z,9.30
2018-10-09T07:07:19.050Z,9.40
2018-10-09T07:09:47.596Z,9.40
2018-10-09T07:12:16.090Z,9.50
2018-10-09T07:14:44.625Z,9.70
2018-10-09T07:17:13.900Z,9.90
2018-10-09T07:19:42.393Z,10.00
2018-10-09T07:22:11.527Z,10.20
2018-10-09T07:24:40.432Z,10.70
2018-10-09T07:27:08.853Z,11.10
2018-10-09T07:29:37.717Z,11.30
2018-10-09T07:32:06.371Z,11.30
2018-10-09T07:34:34.747Z,11.10
2018-10-09T07:37:03.217Z,10.80
2018-10-09T07:39:31.852Z,10.60
2018-10-09T07:42:00.335Z,10.60
2018-10-09T07:44:28.929Z,10.60
2018-10-09T07:46:57.483Z,10.70
2018-10-09T07:49:26.010Z,11.10
2018-10-09T07:51:54.386Z,12.00
2018-10-09T07:54:23.534Z,13.10
2018-10-09T07:56:52.270Z,13.60
2018-10-09T07:59:21.830Z,13.70
2018-10-09T08:01:50.363Z,14.00
2018-10-09T08:04:18.934Z,14.50
2018-10-09T08:06:47.591Z,15.20
2018-10-09T08:09:16.163Z,15.60
2018-10-09T08:11:45.744Z,15.90
2018-10-09T08:14:14.625Z,17.10
2018-10-09T08:16:43.210Z,17.60
2018-10-09T08:19:12.792Z,18.30
2018-10-09T08:21:41.329Z,18.20
2018-10-09T08:24:10.134Z,18.30
2018-10-09T08:26:38.852Z,18.30
2018-10-09T08:29:07.630Z,17.90
2018-10-09T08:31:37.424Z,17.90
2018-10-09T08:34:06.192Z,18.20
2018-10-09T08:36:34.598Z,18.10
2018-10-09T08:39:03.454Z,18.70
2018-10-09T08:41:31.994Z,18.70
2018-10-09T08:44:00.440Z,19.50
2018-10-09T08:46:29.330Z,19.10
2018-10-09T08:48:58.349Z,18.90
2018-10-09T08:51:27.003Z,18.60
2018-10-09T08:53:55.493Z,18.50
2018-10-09T08:56:24.135Z,19.10
2018-10-09T08:58:52.654Z,19.90
2018-10-09T09:01:21.377Z,20.30
2018-10-09T09:03:50.316Z,20.10
2018-10-09T09:06:19.179Z,20.50
2018-10-09T09:08:47.725Z,20.70
2018-10-09T09:11:16.748Z,20.90
2018-10-09T09:13:45.454Z,21.50
2018-10-09T09:16:14.984Z,22.20
2018-10-09T09:18:43.831Z,22.20
2018-10-09T09:21:12.685Z,21.70
2018-10-09T09:23:41.059Z,21.20
2018-10-09T09:26:09.549Z,20.30
2018-10-09T09:28:39.908Z,19.70
2018-10-09T09:31:08.550Z,19.00
2018-10-09T09:33:37.257Z,18.70
2018-10-09T09:36:06.109Z,18.50
2018-10-09T09:38:35.476Z,18.40
2018-10-09T09:41:03.828Z,18.10
2018-10-09T09:43:32.918Z,18.00
2018-10-09T09:46:01.998Z,18.00
2018-10-09T09:48:30.894Z,17.40
2018-10-09T09:51:00.096Z,17.00
2018-10-09T09:53:30.885Z,16.80
2018-10-09T09:55:59.556Z,16.90
2018-10-09T09:58:28.232Z,17.10
2018-10-09T10:00:58.909Z,17.10
2018-10-09T10:03:29.080Z,17.20
2018-10-09T10:05:58.439Z,17.40
2018-10-09T10:08:29.228Z,17.90
2018-10-09T10:10:58.277Z,18.60
2018-10-09T10:13:28.351Z,19.20
2018-10-09T10:15:57.029Z,19.50
2018-10-09T10:18:27.156Z,19.80
2018-10-09T10:20:55.647Z,19.80
2018-10-09T10:23:24.068Z,19.60
2018-10-09T10:25:52.437Z,19.70
2018-10-09T10:28:21.010Z,20.00
2018-10-09T10:30:50.235Z,19.50
2018-10-09T10:33:18.815Z,19.60
2018-10-09T10:35:47.662Z,19.70
2018-10-09T10:38:16.139Z,20.20
2018-10-09T10:40:44.921Z,20.80
2018-10-09T10:43:15.704Z,21.30
2018-10-09T10:45:44.247Z,21.40
2018-10-09T10:48:12.807Z,21.20
2018-10-09T10:50:41.337Z,21.00
2018-10-09T10:53:10.079Z,20.80
2018-10-09T10:55:38.833Z,20.40
2018-10-09T10:58:07.828Z,20.00
2018-10-09T11:00:36.252Z,19.60
2018-10-09T11:03:05.070Z,19.40
2018-10-09T11:05:33.773Z,19.30
2018-10-09T11:08:03.764Z,19.30
2018-10-09T11:10:36.302Z,19.40
2018-10-09T11:13:06.624Z,19.60
2018-10-09T11:15:35.319Z,19.90
2018-10-09T11:18:04.785Z,20.50
2018-10-09T11:20:33.408Z,21.30
2018-10-09T11:23:01.799Z,21.80
2018-10-09T11:25:30.929Z,22.00
2018-10-09T11:27:59.692Z,21.80
2018-10-09T11:30:28.439Z,22.20
2018-10-09T11:32:56.928Z,22.70
2018-10-09T11:35:25.366Z,22.90
2018-10-09T11:37:53.859Z,22.90
2018-10-09T11:40:23.059Z,23.30
2018-10-09T11:42:51.546Z,23.30
2018-10-09T11:45:20.053Z,23.30
2018-10-09T11:47:49.039Z,23.30
2018-10-09T11:50:19.035Z,23.50
2018-10-09T11:52:48.213Z,23.70
2018-10-09T11:55:19.812Z,23.50
2018-10-09T11:57:49.053Z,22.60
2018-10-09T12:00:18.848Z,22.20
2018-10-09T12:02:49.715Z,22.00
2018-10-09T12:05:18.772Z,21.90
2018-10-09T12:07:47.776Z,22.10
2018-10-09T12:10:16.653Z,22.10
2018-10-09T12:12:45.182Z,22.20
2018-10-09T12:15:14.923Z,22.00
2018-10-09T12:17:48.536Z,21.90
2018-10-09T12:20:17.683Z,22.10
2018-10-09T12:22:53.321Z,22.00
2018-10-09T12:25:28.324Z,21.80
2018-10-09T12:28:02.765Z,21.80
2018-10-09T12:30:54.781Z,22.00
2018-10-09T12:33:25.288Z,22.10
2018-10-09T12:35:57.545Z,22.10
2018-10-09T12:38:26.989Z,21.80
2018-10-09T12:40:55.582Z,21.60
2018-10-09T12:43:25.217Z,21.70
2018-10-09T12:45:54.952Z,21.60
2018-10-09T12:48:25.080Z,21.50
2018-10-09T12:50:53.936Z,21.40
2018-10-09T12:53:23.032Z,21.40
2018-10-09T12:55:51.604Z,21.40
2018-10-09T12:58:20.137Z,21.40
2018-10-09T13:00:50.017Z,21.50
2018-10-09T13:03:18.649Z,21.50
2018-10-09T13:05:47.497Z,21.60
2018-10-09T13:08:16.179Z,21.50
2018-10-09T13:10:44.912Z,21.50
2018-10-09T13:13:13.416Z,21.60
2018-10-09T13:15:42.232Z,21.50
2018-10-09T13:18:14.651Z,21.50
2018-10-09T13:20:43.228Z,21.50
2018-10-09T13:23:11.894Z,21.60
2018-10-09T13:25:41.003Z,21.50
2018-10-09T13:28:09.866Z,21.50
2018-10-09T13:30:39.251Z,21.40
2018-10-09T13:33:08.520Z,21.20
2018-10-09T13:35:37.237Z,21.10
2018-10-09T13:38:05.771Z,21.20
2018-10-09T13:40:35.246Z,21.10
2018-10-09T13:43:03.668Z,21.10
2018-10-09T13:45:32.174Z,21.10
2018-10-09T13:48:00.559Z,21.10
2018-10-09T13:50:29.165Z,21.00
2018-10-09T13:52:57.700Z,20.90
2018-10-09T13:55:26.516Z,20.90
2018-10-09T13:57:55.416Z,20.90
2018-10-09T14:00:24.328Z,20.90
2018-10-09T14:02:52.767Z,20.90
2018-10-09T14:05:21.227Z,20.90
2018-10-09T14:07:50.453Z,20.90
2018-10-09T14:10:20.108Z,20.90
2018-10-09T14:12:49.318Z,20.90
2018-10-09T14:15:17.843Z,20.80
2018-10-09T14:17:47.536Z,20.70
2018-10-09T14:20:16.266Z,20.60
2018-10-09T14:22:45.090Z,20.50
2018-10-09T14:25:13.824Z,20.30
2018-10-09T14:27:43.195Z,20.00
2018-10-09T14:30:13.165Z,20.00
2018-10-09T14:32:41.937Z,19.90
2018-10-09T14:35:13.275Z,19.80
2018-10-09T14:37:42.625Z,19.70
2018-10-09T14:40:11.577Z,19.70
2018-10-09T14:42:42.453Z,19.60
2018-10-09T14:45:10.962Z,19.60
2018-10-09T14:47:41.183Z,19.50
2018-10-09T14:50:09.797Z,19.40
2018-10-09T14:52:38.424Z,19.40
2018-10-09T14:55:08.567Z,19.40
2018-10-09T14:57:37.907Z,19.30
2018-10-09T15:00:08.411Z,19.20
2018-10-09T15:02:37.935Z,19.10
2018-10-09T15:05:07.751Z,19.00
2018-10-09T15:07:37.131Z,18.90
2018-10-09T15:10:08.835Z,18.90
2018-10-09T15:12:37.310Z,18.80
2018-10-09T15:15:06.941Z,18.80
2018-10-09T15:17:37.186Z,18.70
2018-10-09T15:20:07.105Z,18.60
2018-10-09T15:22:35.656Z,18.60
2018-10-09T15:25:05.101Z,18.50
2018-10-09T15:27:33.773Z,18.40
2018-10-09T15:30:02.268Z,18.40
2018-10-09T15:32:30.844Z,18.30
2018-10-09T15:34:59.938Z,18.20
2018-10-09T15:37:28.628Z,18.20
2018-10-09T15:39:58.610Z,18.10
2018-10-09T15:42:28.561Z,18.00
2018-10-09T15:44:57.332Z,18.00
2018-10-09T15:47:25.864Z,17.90
2018-10-09T15:49:54.522Z,17.80
2018-10-09T15:52:23.409Z,17.80
2018-10-09T15:54:52.110Z,17.80
2018-10-09T15:57:21.151Z,17.70
2018-10-09T15:59:49.949Z,17.70
2018-10-09T16:02:18.701Z,17.60
2018-10-09T16:04:47.346Z,17.50
2018-10-09T16:07:15.979Z,17.50
2018-10-09T16:09:45.639Z,17.40
2018-10-09T16:12:14.131Z,17.30
2018-10-09T16:14:48.626Z,17.20
2018-10-09T16:17:18.726Z,17.10
2018-10-09T16:19:47.374Z,17.00
2018-10-09T16:22:16.044Z,17.00
2018-10-09T16:24:44.478Z,17.00
2018-10-09T16:27:16.958Z,17.00
2018-10-09T16:29:45.490Z,16.80
2018-10-09T16:32:14.657Z,16.60
2018-10-09T16:34:43.589Z,16.50
2018-10-09T16:37:12.233Z,16.30
2018-10-09T16:39:40.813Z,16.10
2018-10-09T16:42:09.524Z,16.10
2018-10-09T16:44:38.404Z,16.00
2018-10-09T16:47:07.541Z,15.80
2018-10-09T16:49:37.820Z,15.70
2018-10-09T16:52:06.814Z,15.50
2018-10-09T16:54:36.368Z,15.50
2018-10-09T16:57:06.237Z,15.40
2018-10-09T16:59:35.965Z,15.40
2018-10-09T17:02:05.066Z,15.30
2018-10-09T17:04:34.634Z,15.30
2018-10-09T17:07:03.140Z,15.20
2018-10-09T17:09:32.914Z,15.10
2018-10-09T17:12:01.675Z,15.10
2018-10-09T17:14:33.082Z,15.00
2018-10-09T17:17:03.857Z,15.00
2018-10-09T17:19:32.193Z,14.90
2018-10-09T17:22:00.683Z,15.00
2018-10-09T17:24:29.976Z,15.00
2018-10-09T17:26:59.166Z,14.90
2018-10-09T17:29:28.734Z,14.70
2018-10-09T17:31:57.272Z,14.50
2018-10-09T17:34:26.441Z,14.30
2018-10-09T17:36:55.571Z,14.10
2018-10-09T17:39:24.573Z,13.90
2018-10-09T17:41:54.569Z,13.70
2018-10-09T17:44:23.735Z,13.50
2018-10-09T17:46:52.710Z,13.30
2018-10-09T17:49:21.858Z,13.20
2018-10-09T17:51:51.090Z,13.00
2018-10-09T17:54:20.219Z,12.90
2018-10-09T17:56:49.389Z,12.80
2018-10-09T17:59:18.523Z,12.70
2018-10-09T18:01:47.650Z,12.60
2018-10-09T18:04:16.434Z,12.60
2018-10-09T18:06:45.109Z,12.60
2018-10-09T18:09:13.861Z,12.60
2018-10-09T18:11:43.173Z,12.50
2018-10-09T18:14:20.191Z,12.40
2018-10-09T18:16:48.837Z,12.30
2018-10-09T18:19:17.615Z,12.20
2018-10-09T18:21:46.250Z,12.10
2018-10-09T18:24:15.057Z,12.00
2018-10-09T18:26:44.689Z,12.00
2018-10-09T18:29:16.059Z,12.10
2018-10-09T18:31:44.893Z,12.10
2018-10-09T18:34:14.132Z,12.20
2018-10-09T18:36:43.038Z,12.10
2018-10-09T18:39:14.243Z,12.00
2018-10-09T18:41:44.112Z,11.90
2018-10-09T18:44:13.305Z,11.70
2018-10-09T18:46:42.041Z,11.60
2018-10-09T18:49:11.100Z,11.60
2018-10-09T18:51:41.018Z,11.50
2018-10-09T18:54:09.376Z,11.50
2018-10-09T18:56:38.004Z,11.40
2018-10-09T18:59:06.788Z,11.40
2018-10-09T19:01:35.319Z,11.40
2018-10-09T19:04:04.820Z,11.40
2018-10-09T19:06:34.601Z,11.40
2018-10-09T19:09:05.213Z,11.30
2018-10-09T19:11:34.591Z,11.30
2018-10-09T19:14:05.032Z,11.20
2018-10-09T19:16:36.841Z,11.40
2018-10-09T19:19:06.387Z,11.50
2018-10-09T19:21:34.926Z,11.60
2018-10-09T19:24:03.993Z,11.60
2018-10-09T19:26:34.804Z,11.50
2018-10-09T19:29:03.216Z,11.40
2018-10-09T19:31:32.569Z,11.30
2018-10-09T19:34:01.233Z,11.20
2018-10-09T19:36:29.902Z,11.20
2018-10-09T19:39:01.194Z,11.10
2018-10-09T19:41:30.176Z,11.10
2018-10-09T19:44:00.011Z,11.00
2018-10-09T19:46:29.542Z,11.00
2018-10-09T19:48:58.800Z,11.00
2018-10-09T19:51:29.827Z,10.90
2018-10-09T19:53:58.411Z,10.80
2018-10-09T19:56:28.486Z,10.70
2018-10-09T19:58:57.026Z,10.60
2018-10-09T20:01:26.976Z,10.70
2018-10-09T20:03:56.499Z,10.70
2018-10-09T20:06:26.921Z,10.80
2018-10-09T20:08:56.729Z,10.90
2018-10-09T20:11:26.208Z,10.80
2018-10-09T20:13:54.803Z,10.80
2018-10-09T20:16:23.661Z,10.80
2018-10-09T20:18:52.377Z,10.70
2018-10-09T20:21:21.016Z,10.70
2018-10-09T20:23:49.598Z,10.70
2018-10-09T20:26:18.249Z,10.70
2018-10-09T20:28:47.044Z,10.60
2018-10-09T20:31:15.747Z,10.50
2018-10-09T20:33:44.257Z,10.60
2018-10-09T20:36:12.788Z,10.80
2018-10-09T20:38:41.659Z,10.80
2018-10-09T20:41:10.270Z,11.00
2018-10-09T20:43:39.575Z,11.00
2018-10-09T20:46:09.472Z,11.10
2018-10-09T20:48:38.492Z,11.00
2018-10-09T20:51:08.935Z,11.00
2018-10-09T20:53:40.461Z,11.00
2018-10-09T20:56:08.985Z,10.90
2018-10-09T20:58:38.546Z,10.90
2018-10-09T21:01:07.301Z,10.80
2018-10-09T21:03:43.961Z,10.80
2018-10-09T21:06:13.533Z,10.80
2018-10-09T21:08:42.500Z,10.80
2018-10-09T21:11:11.062Z,10.90
2018-10-09T21:13:39.580Z,10.90
2018-10-09T21:16:08.073Z,10.80
2018-10-09T21:18:36.628Z,10.70
2018-10-09T21:21:05.198Z,10.60
2018-10-09T21:23:33.827Z,10.50
2018-10-09T21:26:02.437Z,10.50
2018-10-09T21:28:31.002Z,10.50
2018-10-09T21:30:59.691Z,10.50
2018-10-09T21:33:29.154Z,10.40
2018-10-09T21:35:57.581Z,10.50
2018-10-09T21:38:26.187Z,10.40
2018-10-09T21:40:55.824Z,10.30
2018-10-09T21:43:24.814Z,10.30
2018-10-09T21:45:56.646Z,10.40
2018-10-09T21:48:25.164Z,10.40
2018-10-09T21:50:53.669Z,10.30
2018-10-09T21:53:22.461Z,10.30
2018-10-09T21:55:53.038Z,10.20
2018-10-09T21:58:21.488Z,10.30
2018-10-09T22:00:54.181Z,10.10
2018-10-09T22:03:22.558Z,10.00
2018-10-09T22:05:51.205Z,9.90
2018-10-09T22:08:19.688Z,9.80
2018-10-09T22:10:52.182Z,9.70
2018-10-09T22:13:23.287Z,9.60
2018-10-09T22:15:51.884Z,9.60
2018-10-09T22:18:21.294Z,9.60
2018-10-09T22:20:49.872Z,9.70
2018-10-09T22:23:18.942Z,9.60
2018-10-09T22:25:47.691Z,9.60
2018-10-09T22:28:16.247Z,9.50
2018-10-09T22:30:45.771Z,9.50
2018-10-09T22:33:14.167Z,9.40
2018-10-09T22:35:42.660Z,9.40
2018-10-09T22:38:11.278Z,9.40
2018-10-09T22:40:39.800Z,9.30
2018-10-09T22:43:08.287Z,9.20
2018-10-09T22:45:38.761Z,9.10
2018-10-09T22:48:07.396Z,9.10
2018-10-09T22:50:35.862Z,9.30
2018-10-09T22:53:04.360Z,9.30
2018-10-09T22:55:32.831Z,9.30
2018-10-09T22:58:01.915Z,9.30
2018-10-09T23:00:30.435Z,9.30
2018-10-09T23:02:58.890Z,9.40
2018-10-09T23:05:28.037Z,9.50
2018-10-09T23:07:58.052Z,9.50
2018-10-09T23:10:27.188Z,9.60
2018-10-09T23:12:55.676Z,9.50
2018-10-09T23:15:25.268Z,9.50
2018-10-09T23:17:53.943Z,9.50
2018-10-09T23:20:22.595Z,9.40
2018-10-09T23:22:51.156Z,9.50
2018-10-09T23:25:24.940Z,9.50
2018-10-09T23:27:53.928Z,9.60
2018-10-09T23:30:22.807Z,9.60
2018-10-09T23:32:52.686Z,9.60
2018-10-09T23:35:21.176Z,9.60
2018-10-09T23:37:49.956Z,9.40
2018-10-09T23:40:18.975Z,9.40
2018-10-09T23:42:47.655Z,9.40
2018-10-09T23:45:16.061Z,9.30
2018-10-09T23:47:45.295Z,9.30
2018-10-09T23:50:13.741Z,9.20
2018-10-09T23:52:42.558Z,9.00
2018-10-09T23:55:11.112Z,8.90
2018-10-09T23:57:39.784Z,8.90
